EGPB Airport Information

Runway Information
Runway 06H Length 1804 ft width 148 ft
Elevation 8 ft Threshold 0 ft Heading 53
Runway 24H Length 1804 ft Width 148 ft
Elevation 19 ft Threshold 0 ft Heading 233
Runway 09 Length 3871 ft width 151 ft
Elevation 20 ft Threshold 23 ft Heading 84
Runway 27 Length 3871 ft Width 151 ft
Elevation 15 ft Threshold 105 ft Heading 264
Runway 15 Length 4678 ft width 151 ft
Elevation 7 ft Threshold 614 ft Heading 144
Runway 33 Length 4678 ft Width 151 ft
Elevation 8 ft Threshold 614 ft Heading 324
Airport Frequencies
Type APP Name RADAR Frequency 131.3 MHZ
Type ATIS Name ATIS Frequency 125.85 MHZ
Type TWR Name TWR Frequency 118.25 MHZ
Airport Navaids
Type NDB Name Sumburgh Frequency 351 KHZ
Type VOR-DME Name Sumburgh Frequency 117350 KHZ
Airport Weather Information & NOTAM
ADDS - METARS form results

(2244 UTC 15 April 2021)
Data provider http://aviationweather.gov/metar/data/
 
METAR text: EGPB 152220Z AUTO 17011KT 9999 FEW024/// 06/02 Q1033
Conditions at: EGPB (SUMBURGH (CAPE) , GB) observed 2220 UTC 15 April 2021
Temperature: 6.0°C (43°F)
Dewpoint: 2.0°C (36°F) [RH = 75%]
Pressure (altimeter): 30.50 inches Hg (1033.0 mb)
Winds: from the S (170 degrees) at 13 MPH (11 knots; 5.7 m/s)
Visibility: 6 or more miles (10+ km)
Ceiling: at least 12,000 feet AGL
Clouds: few clouds at 2400 feet AGL
Weather: no significant weather observed at this time

METAR text: EGPB 152150Z AUTO 18011KT 9999 SCT023/// 07/02 Q1033
Conditions at: EGPB (SUMBURGH (CAPE) , GB) observed 2150 UTC 15 April 2021
Temperature: 7.0°C (45°F)
Dewpoint: 2.0°C (36°F) [RH = 70%]
Pressure (altimeter): 30.50 inches Hg (1033.0 mb)
Winds: from the S (180 degrees) at 13 MPH (11 knots; 5.7 m/s)
Visibility: 6 or more miles (10+ km)
Ceiling: at least 12,000 feet AGL
Clouds: scattered clouds at 2300 feet AGL
Weather: no significant weather observed at this time

Forecast for: EGPB (SUMBURGH (CAPE) , GB)
Text: TAF EGPB 151954Z 1521/1606 16009KT 9999 FEW020
Forecast period: 2100 UTC 15 April 2021 to 0600 UTC 16 April 2021
Forecast type: FROM: standard forecast or significant change
Winds: from the SSE (160 degrees) at 10 MPH (9 knots; 4.6 m/s)
Visibility: 6 or more miles (10+ km)
Ceiling: at least 12,000 feet AGL
Clouds: few clouds at 2000 feet AGL
Weather: no significant weather forecast for this period